VLG36CO LEBL-DAAG
Flight info
| Callsign | VLG36CO |
|---|---|
| Flight time | 0h 54m |
| Altitude | 33000 |
| Route | LARPA N859 GENIO DCT BUYAH UA27 ALR |
| Aircraft | A320/M-SDE3FGHIRWY/LB1 |
Departure
| Time | 2026-05-08 13:20 |
|---|---|
| Airport | Josep Tarradellas Barcelona-El Prat Airport (LEBL) |
Arrival
| Time | 2026-05-08 14:14 |
|---|---|
| Airport | Houari Boumediene Airport (DAAG) |
| Time | Latitude | Longitude | Altitude | Speed | Heading |
|---|---|---|---|---|---|
| 2026-05-08 12:51 | 41.29100 | 2.07245 | 19 ft | 0 kts | 155° |
| 2026-05-08 13:08 | 41.29116 | 2.07236 | 21 ft | 4 kts | 155° |
| 2026-05-08 13:08 | 41.29140 | 2.07221 | 21 ft | 4 kts | 157° |
| 2026-05-08 13:08 | 41.29163 | 2.07215 | 22 ft | 4 kts | 205° |
| 2026-05-08 13:09 | 41.29176 | 2.07232 | 20 ft | 2 kts | 245° |
| 2026-05-08 13:09 | 41.29182 | 2.07250 | 19 ft | 1 kts | 245° |
| 2026-05-08 13:09 | 41.29183 | 2.07251 | 19 ft | 0 kts | 245° |
| 2026-05-08 13:11 | 41.29174 | 2.07225 | 23 ft | 7 kts | 245° |
| 2026-05-08 13:11 | 41.29150 | 2.07156 | 19 ft | 10 kts | 245° |
| 2026-05-08 13:12 | 41.29172 | 2.07080 | 17 ft | 12 kts | 335° |
| 2026-05-08 13:12 | 41.29245 | 2.07061 | 16 ft | 9 kts | 33° |
| 2026-05-08 13:12 | 41.29286 | 2.07166 | 17 ft | 18 kts | 67° |
| 2026-05-08 13:12 | 41.29337 | 2.07317 | 17 ft | 17 kts | 65° |
| 2026-05-08 13:13 | 41.29393 | 2.07469 | 17 ft | 20 kts | 63° |
| 2026-05-08 13:13 | 41.29442 | 2.07628 | 17 ft | 13 kts | 73° |
| 2026-05-08 13:13 | 41.29405 | 2.07737 | 15 ft | 13 kts | 89° |
| 2026-05-08 13:13 | 41.29444 | 2.07861 | 15 ft | 16 kts | 68° |
| 2026-05-08 13:14 | 41.29495 | 2.08008 | 15 ft | 19 kts | 66° |
| 2026-05-08 13:14 | 41.29539 | 2.08139 | 17 ft | 12 kts | 65° |
| 2026-05-08 13:14 | 41.29557 | 2.08249 | 16 ft | 13 kts | 120° |
| 2026-05-08 13:14 | 41.29475 | 2.08313 | 17 ft | 15 kts | 157° |
| 2026-05-08 13:15 | 41.29377 | 2.08371 | 19 ft | 16 kts | 155° |
| 2026-05-08 13:15 | 41.29269 | 2.08437 | 22 ft | 18 kts | 155° |
| 2026-05-08 13:15 | 41.29146 | 2.08511 | 18 ft | 20 kts | 156° |
| 2026-05-08 13:15 | 41.29012 | 2.08592 | 18 ft | 20 kts | 155° |
| 2026-05-08 13:16 | 41.28887 | 2.08669 | 16 ft | 20 kts | 153° |
| 2026-05-08 13:16 | 41.28888 | 2.08804 | 17 ft | 17 kts | 67° |
| 2026-05-08 13:16 | 41.28942 | 2.08964 | 16 ft | 21 kts | 66° |
| 2026-05-08 13:16 | 41.29006 | 2.09152 | 17 ft | 24 kts | 65° |
| 2026-05-08 13:17 | 41.29077 | 2.09360 | 19 ft | 26 kts | 65° |
| 2026-05-08 13:17 | 41.29150 | 2.09572 | 17 ft | 26 kts | 65° |
| 2026-05-08 13:17 | 41.29225 | 2.09791 | 17 ft | 22 kts | 65° |
| 2026-05-08 13:17 | 41.29275 | 2.09953 | 17 ft | 16 kts | 75° |
| 2026-05-08 13:18 | 41.29249 | 2.10103 | 15 ft | 19 kts | 110° |
| 2026-05-08 13:18 | 41.29252 | 2.10247 | 16 ft | 14 kts | 71° |
| 2026-05-08 13:18 | 41.29216 | 2.10289 | 15 ft | 5 kts | 211° |
| 2026-05-08 13:18 | 41.29194 | 2.10246 | 16 ft | 6 kts | 243° |
| 2026-05-08 13:19 | 41.29166 | 2.10164 | 17 ft | 22 kts | 246° |
| 2026-05-08 13:19 | 41.28990 | 2.09654 | 20 ft | 96 kts | 245° |
| 2026-05-08 13:19 | 41.28628 | 2.08606 | 23 ft | 150 kts | 246° |
| 2026-05-08 13:19 | 41.28167 | 2.07252 | 441 ft | 162 kts | 242° |
| 2026-05-08 13:20 | 41.27497 | 2.06062 | 1082 ft | 162 kts | 212° |
| 2026-05-08 13:20 | 41.26439 | 2.05645 | 1691 ft | 164 kts | 176° |
| 2026-05-08 13:20 | 41.25222 | 2.05729 | 2046 ft | 186 kts | 176° |
| 2026-05-08 13:20 | 41.23843 | 2.05768 | 2384 ft | 210 kts | 178° |
| 2026-05-08 13:21 | 41.22353 | 2.05756 | 3132 ft | 217 kts | 180° |
| 2026-05-08 13:21 | 41.20819 | 2.05703 | 3930 ft | 224 kts | 181° |
| 2026-05-08 13:21 | 41.19269 | 2.05661 | 4917 ft | 221 kts | 180° |
| 2026-05-08 13:21 | 41.17718 | 2.05608 | 5772 ft | 226 kts | 189° |
| 2026-05-08 13:22 | 41.16204 | 2.04855 | 6406 ft | 241 kts | 209° |
| 2026-05-08 13:22 | 41.14733 | 2.03752 | 7280 ft | 244 kts | 207° |
| 2026-05-08 13:22 | 41.13239 | 2.02695 | 8223 ft | 244 kts | 206° |
| 2026-05-08 13:22 | 41.11722 | 2.01654 | 9175 ft | 246 kts | 206° |
| 2026-05-08 13:23 | 41.10195 | 2.00617 | 10103 ft | 247 kts | 207° |
| 2026-05-08 13:23 | 41.08655 | 1.99572 | 10911 ft | 250 kts | 207° |
| 2026-05-08 13:23 | 41.07068 | 1.98606 | 11698 ft | 253 kts | 198° |
| 2026-05-08 13:23 | 41.05294 | 1.98066 | 12097 ft | 274 kts | 191° |
| 2026-05-08 13:24 | 41.03332 | 1.97587 | 12361 ft | 298 kts | 191° |
| 2026-05-08 13:24 | 41.01215 | 1.97086 | 12603 ft | 320 kts | 191° |
| 2026-05-08 13:24 | 40.98986 | 1.96558 | 13173 ft | 329 kts | 191° |
| 2026-05-08 13:24 | 40.96708 | 1.96094 | 13867 ft | 334 kts | 184° |
| 2026-05-08 13:25 | 40.94384 | 1.96448 | 14490 ft | 341 kts | 165° |
| 2026-05-08 13:25 | 40.92266 | 1.97823 | 15116 ft | 350 kts | 146° |
| 2026-05-08 13:25 | 40.90521 | 2.00173 | 15738 ft | 359 kts | 131° |
| 2026-05-08 13:25 | 40.88987 | 2.02795 | 16338 ft | 364 kts | 131° |
| 2026-05-08 13:26 | 40.87449 | 2.05426 | 16914 ft | 369 kts | 132° |
| 2026-05-08 13:26 | 40.85843 | 2.08164 | 17514 ft | 374 kts | 132° |
| 2026-05-08 13:26 | 40.84260 | 2.10860 | 18092 ft | 379 kts | 133° |
| 2026-05-08 13:26 | 40.82632 | 2.13622 | 18649 ft | 383 kts | 133° |
| 2026-05-08 13:27 | 40.80967 | 2.16451 | 19223 ft | 387 kts | 133° |
| 2026-05-08 13:27 | 40.79335 | 2.19228 | 19799 ft | 390 kts | 133° |
| 2026-05-08 13:27 | 40.77611 | 2.21989 | 20373 ft | 389 kts | 139° |
| 2026-05-08 13:27 | 40.75597 | 2.24330 | 20938 ft | 385 kts | 150° |
| 2026-05-08 13:28 | 40.73352 | 2.26227 | 21481 ft | 384 kts | 154° |
| 2026-05-08 13:28 | 40.71066 | 2.28070 | 22031 ft | 386 kts | 154° |
| 2026-05-08 13:28 | 40.68761 | 2.29925 | 22537 ft | 390 kts | 154° |
| 2026-05-08 13:28 | 40.66437 | 2.31795 | 23036 ft | 393 kts | 154° |
| 2026-05-08 13:29 | 40.64087 | 2.33667 | 23549 ft | 395 kts | 156° |
| 2026-05-08 13:29 | 40.61599 | 2.35158 | 23972 ft | 392 kts | 166° |
| 2026-05-08 13:29 | 40.58990 | 2.36145 | 24408 ft | 391 kts | 170° |
| 2026-05-08 13:29 | 40.56350 | 2.37069 | 24852 ft | 393 kts | 170° |
| 2026-05-08 13:30 | 40.53698 | 2.37996 | 25276 ft | 396 kts | 170° |
| 2026-05-08 13:30 | 40.51030 | 2.38927 | 25710 ft | 398 kts | 170° |
| 2026-05-08 13:30 | 40.48343 | 2.39860 | 26142 ft | 400 kts | 170° |
| 2026-05-08 13:30 | 40.45645 | 2.40801 | 26570 ft | 403 kts | 170° |
| 2026-05-08 13:31 | 40.42926 | 2.41750 | 26968 ft | 405 kts | 170° |
| 2026-05-08 13:31 | 40.40187 | 2.42704 | 27367 ft | 408 kts | 170° |
| 2026-05-08 13:31 | 40.37437 | 2.43658 | 27776 ft | 410 kts | 170° |
| 2026-05-08 13:31 | 40.34671 | 2.44613 | 28192 ft | 413 kts | 170° |
| 2026-05-08 13:32 | 40.31885 | 2.45575 | 28610 ft | 415 kts | 170° |
| 2026-05-08 13:32 | 40.29085 | 2.46542 | 29035 ft | 417 kts | 170° |
| 2026-05-08 13:32 | 40.26274 | 2.47517 | 29442 ft | 420 kts | 170° |
| 2026-05-08 13:32 | 40.23445 | 2.48496 | 29852 ft | 422 kts | 170° |
| 2026-05-08 13:33 | 40.20592 | 2.49479 | 30201 ft | 425 kts | 171° |
| 2026-05-08 13:33 | 40.17723 | 2.50467 | 30526 ft | 427 kts | 171° |
| 2026-05-08 13:33 | 40.14842 | 2.51463 | 30869 ft | 430 kts | 171° |
| 2026-05-08 13:33 | 40.11944 | 2.52470 | 31219 ft | 431 kts | 170° |
| 2026-05-08 13:34 | 40.09039 | 2.53481 | 31571 ft | 433 kts | 171° |
| 2026-05-08 13:34 | 40.06119 | 2.54491 | 31924 ft | 435 kts | 171° |
| 2026-05-08 13:34 | 40.03198 | 2.55497 | 32411 ft | 433 kts | 171° |
| 2026-05-08 13:34 | 40.00293 | 2.56496 | 32861 ft | 432 kts | 171° |
| 2026-05-08 13:35 | 39.97393 | 2.57491 | 32987 ft | 429 kts | 171° |
| 2026-05-08 13:35 | 39.94556 | 2.58467 | 33003 ft | 416 kts | 171° |
| 2026-05-08 13:35 | 39.89028 | 2.60365 | 32998 ft | 409 kts | 172° |
| 2026-05-08 13:36 | 39.83529 | 2.62235 | 32999 ft | 408 kts | 172° |
| 2026-05-08 13:36 | 39.78034 | 2.64105 | 33001 ft | 408 kts | 172° |
| 2026-05-08 13:37 | 39.72538 | 2.65974 | 33000 ft | 409 kts | 172° |
| 2026-05-08 13:37 | 39.67043 | 2.67849 | 32979 ft | 408 kts | 173° |
| 2026-05-08 13:38 | 39.61541 | 2.69726 | 32991 ft | 409 kts | 172° |
| 2026-05-08 13:38 | 39.56033 | 2.71596 | 33005 ft | 409 kts | 173° |
| 2026-05-08 13:39 | 39.50526 | 2.73457 | 32997 ft | 409 kts | 173° |
| 2026-05-08 13:39 | 39.45027 | 2.75326 | 33007 ft | 409 kts | 173° |
| 2026-05-08 13:40 | 39.39551 | 2.77189 | 33001 ft | 410 kts | 173° |
| 2026-05-08 13:40 | 39.34037 | 2.79100 | 32998 ft | 410 kts | 172° |
| 2026-05-08 13:41 | 39.28530 | 2.81014 | 32969 ft | 410 kts | 173° |
| 2026-05-08 13:41 | 39.23024 | 2.82916 | 32974 ft | 410 kts | 173° |
| 2026-05-08 13:42 | 39.17505 | 2.84820 | 32988 ft | 411 kts | 173° |
| 2026-05-08 13:42 | 39.11989 | 2.86717 | 32993 ft | 411 kts | 173° |
| 2026-05-08 13:43 | 39.06462 | 2.88613 | 32986 ft | 411 kts | 174° |
| 2026-05-08 13:43 | 39.00940 | 2.90501 | 32995 ft | 411 kts | 174° |
| 2026-05-08 13:44 | 38.95410 | 2.92404 | 33001 ft | 411 kts | 174° |
| 2026-05-08 13:44 | 38.89879 | 2.94307 | 33002 ft | 411 kts | 174° |
| 2026-05-08 13:45 | 38.84351 | 2.96181 | 32970 ft | 411 kts | 175° |
| 2026-05-08 13:45 | 38.78823 | 2.98059 | 32980 ft | 411 kts | 175° |
| 2026-05-08 13:46 | 38.73290 | 2.99942 | 32981 ft | 411 kts | 175° |
| 2026-05-08 13:46 | 38.67758 | 3.01823 | 32997 ft | 411 kts | 175° |
| 2026-05-08 13:47 | 38.62227 | 3.03699 | 32996 ft | 411 kts | 175° |
| 2026-05-08 13:47 | 38.56699 | 3.05569 | 32959 ft | 411 kts | 175° |
| 2026-05-08 13:48 | 38.51169 | 3.07442 | 32973 ft | 411 kts | 175° |
| 2026-05-08 13:48 | 38.45638 | 3.09312 | 32981 ft | 411 kts | 175° |
| 2026-05-08 13:49 | 38.40156 | 3.11151 | 32597 ft | 408 kts | 175° |
| 2026-05-08 13:49 | 38.37406 | 3.12072 | 31882 ft | 410 kts | 175° |
| 2026-05-08 13:49 | 38.34652 | 3.12995 | 31355 ft | 408 kts | 174° |
| 2026-05-08 13:50 | 38.31917 | 3.13917 | 30838 ft | 405 kts | 174° |
| 2026-05-08 13:50 | 38.29200 | 3.14636 | 30346 ft | 394 kts | 181° |
| 2026-05-08 13:50 | 38.26502 | 3.14844 | 29819 ft | 384 kts | 187° |
| 2026-05-08 13:50 | 38.23839 | 3.14883 | 29247 ft | 382 kts | 187° |
| 2026-05-08 13:51 | 38.21185 | 3.14932 | 28699 ft | 380 kts | 187° |
| 2026-05-08 13:51 | 38.18555 | 3.14983 | 28167 ft | 377 kts | 187° |
| 2026-05-08 13:51 | 38.15937 | 3.15034 | 27716 ft | 376 kts | 187° |
| 2026-05-08 13:51 | 38.13324 | 3.15090 | 27254 ft | 374 kts | 187° |
| 2026-05-08 13:52 | 38.10713 | 3.15380 | 26850 ft | 381 kts | 178° |
| 2026-05-08 13:52 | 38.08121 | 3.16161 | 26446 ft | 384 kts | 174° |
| 2026-05-08 13:52 | 38.05541 | 3.17006 | 26047 ft | 382 kts | 174° |
| 2026-05-08 13:52 | 38.02973 | 3.17840 | 25665 ft | 380 kts | 174° |
| 2026-05-08 13:53 | 38.00422 | 3.18665 | 25273 ft | 378 kts | 174° |
| 2026-05-08 13:53 | 37.97882 | 3.19487 | 24892 ft | 376 kts | 174° |
| 2026-05-08 13:53 | 37.95359 | 3.20304 | 24519 ft | 374 kts | 174° |
| 2026-05-08 13:53 | 37.92844 | 3.21116 | 24152 ft | 372 kts | 174° |
| 2026-05-08 13:54 | 37.90340 | 3.21923 | 23761 ft | 370 kts | 175° |
| 2026-05-08 13:54 | 37.87854 | 3.22724 | 23364 ft | 367 kts | 175° |
| 2026-05-08 13:54 | 37.85387 | 3.23517 | 22942 ft | 365 kts | 174° |
| 2026-05-08 13:54 | 37.82936 | 3.24305 | 22517 ft | 362 kts | 174° |
| 2026-05-08 13:55 | 37.80502 | 3.25087 | 22102 ft | 360 kts | 174° |
| 2026-05-08 13:55 | 37.78077 | 3.25866 | 21688 ft | 358 kts | 174° |
| 2026-05-08 13:55 | 37.73284 | 3.27406 | 20879 ft | 353 kts | 174° |
| 2026-05-08 13:56 | 37.70909 | 3.28163 | 20471 ft | 351 kts | 174° |
| 2026-05-08 13:56 | 37.68548 | 3.28914 | 20073 ft | 349 kts | 174° |
| 2026-05-08 13:56 | 37.66993 | 3.29408 | 19797 ft | 348 kts | 174° |
| 2026-05-08 13:56 | 37.64655 | 3.30153 | 19422 ft | 345 kts | 173° |
| 2026-05-08 13:57 | 37.62330 | 3.30896 | 19038 ft | 344 kts | 173° |
| 2026-05-08 13:57 | 37.60021 | 3.31637 | 18671 ft | 342 kts | 173° |
| 2026-05-08 13:57 | 37.57720 | 3.32373 | 18297 ft | 340 kts | 173° |
| 2026-05-08 13:57 | 37.55428 | 3.33105 | 17874 ft | 338 kts | 173° |
| 2026-05-08 13:58 | 37.53155 | 3.33831 | 17458 ft | 336 kts | 173° |
| 2026-05-08 13:58 | 37.50894 | 3.34550 | 17041 ft | 334 kts | 172° |
| 2026-05-08 13:58 | 37.48642 | 3.35264 | 16639 ft | 332 kts | 172° |
| 2026-05-08 13:58 | 37.46410 | 3.35973 | 16236 ft | 330 kts | 172° |
| 2026-05-08 13:59 | 37.44189 | 3.36683 | 15838 ft | 329 kts | 172° |
| 2026-05-08 13:59 | 37.41978 | 3.37389 | 15444 ft | 327 kts | 172° |
| 2026-05-08 13:59 | 37.39778 | 3.38088 | 15098 ft | 326 kts | 172° |
| 2026-05-08 13:59 | 37.37585 | 3.38786 | 14787 ft | 325 kts | 171° |
| 2026-05-08 14:00 | 37.35398 | 3.39478 | 14477 ft | 323 kts | 171° |
| 2026-05-08 14:00 | 37.33222 | 3.40166 | 14173 ft | 322 kts | 171° |
| 2026-05-08 14:00 | 37.31052 | 3.40854 | 13871 ft | 320 kts | 171° |
| 2026-05-08 14:00 | 37.28902 | 3.41536 | 13542 ft | 319 kts | 171° |
| 2026-05-08 14:01 | 37.26746 | 3.42217 | 13202 ft | 318 kts | 171° |
| 2026-05-08 14:01 | 37.24611 | 3.42893 | 12866 ft | 316 kts | 171° |
| 2026-05-08 14:01 | 37.22483 | 3.43569 | 12528 ft | 314 kts | 171° |
| 2026-05-08 14:01 | 37.20367 | 3.44240 | 12204 ft | 313 kts | 171° |
| 2026-05-08 14:02 | 37.18266 | 3.44904 | 11867 ft | 311 kts | 171° |
| 2026-05-08 14:02 | 37.16170 | 3.45564 | 11544 ft | 309 kts | 171° |
| 2026-05-08 14:02 | 37.14086 | 3.46221 | 11214 ft | 308 kts | 171° |
| 2026-05-08 14:02 | 37.12016 | 3.46873 | 10909 ft | 306 kts | 171° |
| 2026-05-08 14:03 | 37.09957 | 3.47522 | 10599 ft | 304 kts | 171° |
| 2026-05-08 14:03 | 37.07911 | 3.48165 | 10292 ft | 303 kts | 171° |
| 2026-05-08 14:03 | 37.05874 | 3.48808 | 9986 ft | 301 kts | 171° |
| 2026-05-08 14:03 | 37.03885 | 3.49437 | 9663 ft | 297 kts | 171° |
| 2026-05-08 14:04 | 37.01896 | 3.50065 | 9357 ft | 292 kts | 171° |
| 2026-05-08 14:04 | 36.99933 | 3.50684 | 9049 ft | 289 kts | 171° |
| 2026-05-08 14:04 | 36.98001 | 3.51292 | 8745 ft | 285 kts | 171° |
| 2026-05-08 14:04 | 36.96084 | 3.51891 | 8428 ft | 282 kts | 171° |
| 2026-05-08 14:05 | 36.94190 | 3.52482 | 8135 ft | 279 kts | 171° |
| 2026-05-08 14:05 | 36.92320 | 3.53068 | 7833 ft | 276 kts | 170° |
| 2026-05-08 14:05 | 36.90469 | 3.53648 | 7540 ft | 273 kts | 170° |
| 2026-05-08 14:05 | 36.88636 | 3.54223 | 7245 ft | 270 kts | 170° |
| 2026-05-08 14:06 | 36.86819 | 3.54793 | 6961 ft | 267 kts | 170° |
| 2026-05-08 14:06 | 36.85023 | 3.55358 | 6677 ft | 265 kts | 170° |
| 2026-05-08 14:06 | 36.83246 | 3.55916 | 6399 ft | 262 kts | 170° |
| 2026-05-08 14:06 | 36.81473 | 3.56208 | 6184 ft | 252 kts | 185° |
| 2026-05-08 14:07 | 36.79790 | 3.55865 | 6057 ft | 240 kts | 200° |
| 2026-05-08 14:07 | 36.78316 | 3.54997 | 5934 ft | 231 kts | 214° |
| 2026-05-08 14:07 | 36.77115 | 3.53713 | 5681 ft | 228 kts | 228° |
| 2026-05-08 14:07 | 36.76075 | 3.52226 | 5356 ft | 228 kts | 227° |
| 2026-05-08 14:08 | 36.75029 | 3.50741 | 5046 ft | 227 kts | 228° |
| 2026-05-08 14:08 | 36.74007 | 3.49292 | 4725 ft | 218 kts | 228° |
| 2026-05-08 14:08 | 36.73023 | 3.47898 | 4399 ft | 211 kts | 227° |
| 2026-05-08 14:08 | 36.72067 | 3.46546 | 4095 ft | 206 kts | 227° |
| 2026-05-08 14:09 | 36.71123 | 3.45214 | 3818 ft | 205 kts | 228° |
| 2026-05-08 14:09 | 36.70182 | 3.43883 | 3551 ft | 204 kts | 227° |
| 2026-05-08 14:09 | 36.69253 | 3.42540 | 3279 ft | 205 kts | 235° |
| 2026-05-08 14:09 | 36.68696 | 3.40946 | 3116 ft | 199 kts | 261° |
| 2026-05-08 14:10 | 36.68655 | 3.39268 | 2944 ft | 190 kts | 274° |
| 2026-05-08 14:10 | 36.68699 | 3.37644 | 2696 ft | 184 kts | 275° |
| 2026-05-08 14:10 | 36.68739 | 3.36086 | 2453 ft | 176 kts | 275° |
| 2026-05-08 14:10 | 36.68778 | 3.34577 | 2232 ft | 172 kts | 275° |
| 2026-05-08 14:11 | 36.68814 | 3.33126 | 2007 ft | 165 kts | 275° |
| 2026-05-08 14:11 | 36.68849 | 3.31728 | 1789 ft | 159 kts | 275° |
| 2026-05-08 14:11 | 36.68882 | 3.30385 | 1582 ft | 150 kts | 275° |
| 2026-05-08 14:11 | 36.68918 | 3.29123 | 1324 ft | 147 kts | 276° |
| 2026-05-08 14:12 | 36.68960 | 3.27878 | 1158 ft | 142 kts | 276° |
| 2026-05-08 14:12 | 36.68987 | 3.26660 | 990 ft | 139 kts | 273° |
| 2026-05-08 14:12 | 36.69013 | 3.25462 | 828 ft | 137 kts | 274° |
| 2026-05-08 14:12 | 36.69037 | 3.24266 | 620 ft | 139 kts | 273° |
| 2026-05-08 14:13 | 36.69063 | 3.23060 | 436 ft | 140 kts | 275° |
| 2026-05-08 14:13 | 36.69090 | 3.21855 | 243 ft | 138 kts | 275° |
| 2026-05-08 14:13 | 36.69120 | 3.20677 | 90 ft | 135 kts | 274° |
| 2026-05-08 14:13 | 36.69148 | 3.19643 | 70 ft | 101 kts | 271° |
| 2026-05-08 14:14 | 36.69165 | 3.18912 | 79 ft | 63 kts | 271° |
| 2026-05-08 14:14 | 36.69169 | 3.18623 | 79 ft | 11 kts | 272° |
| 2026-05-08 14:14 | 36.69174 | 3.18508 | 78 ft | 14 kts | 273° |
| 2026-05-08 14:14 | 36.69236 | 3.18427 | 75 ft | 17 kts | 352° |
| 2026-05-08 14:15 | 36.69337 | 3.18483 | 62 ft | 17 kts | 72° |
| 2026-05-08 14:15 | 36.69334 | 3.18643 | 63 ft | 20 kts | 90° |
| 2026-05-08 14:15 | 36.69332 | 3.18828 | 69 ft | 23 kts | 91° |
| 2026-05-08 14:15 | 36.69329 | 3.19032 | 71 ft | 24 kts | 91° |
| 2026-05-08 14:16 | 36.69324 | 3.19235 | 71 ft | 25 kts | 91° |
| 2026-05-08 14:16 | 36.69319 | 3.19429 | 68 ft | 19 kts | 91° |
| 2026-05-08 14:16 | 36.69320 | 3.19595 | 64 ft | 13 kts | 70° |
| 2026-05-08 14:16 | 36.69405 | 3.19619 | 70 ft | 15 kts | 329° |
| 2026-05-08 14:17 | 36.69433 | 3.19476 | 70 ft | 20 kts | 268° |
| 2026-05-08 14:17 | 36.69343 | 3.19401 | 65 ft | 19 kts | 152° |
| 2026-05-08 14:17 | 36.69316 | 3.19556 | 70 ft | 20 kts | 90° |
| 2026-05-08 14:17 | 36.69310 | 3.19745 | 71 ft | 23 kts | 92° |
| 2026-05-08 14:18 | 36.69306 | 3.19960 | 65 ft | 26 kts | 91° |
| 2026-05-08 14:18 | 36.69301 | 3.20181 | 71 ft | 18 kts | 91° |
| 2026-05-08 14:18 | 36.69348 | 3.20290 | 68 ft | 16 kts | 11° |
| 2026-05-08 14:18 | 36.69449 | 3.20333 | 70 ft | 16 kts | 54° |
| 2026-05-08 14:19 | 36.69547 | 3.20366 | 70 ft | 14 kts | 1° |
| 2026-05-08 14:19 | 36.69603 | 3.20450 | 70 ft | 16 kts | 88° |
| 2026-05-08 14:19 | 36.69608 | 3.20563 | 66 ft | 6 kts | 51° |
| 2026-05-08 14:19 | 36.69663 | 3.20585 | 68 ft | 9 kts | 18° |
| 2026-05-08 14:20 | 36.69677 | 3.20591 | 69 ft | 0 kts | 19° |